createdAt,value
2018-04-01T00:00:14.939Z,90.29
2018-04-01T00:03:17.458Z,90.27
2018-04-01T00:06:20.768Z,90.15
2018-04-01T00:09:23.270Z,90.15
2018-04-01T00:12:25.798Z,90.26
2018-04-01T00:15:28.299Z,90.45
2018-04-01T00:18:30.827Z,90.27
2018-04-01T00:21:33.330Z,90.32
2018-04-01T00:24:35.875Z,90.43
2018-04-01T00:27:38.383Z,90.31
2018-04-01T00:30:40.931Z,90.26
2018-04-01T00:33:43.434Z,90.14
2018-04-01T00:36:45.967Z,90.15
2018-04-01T00:39:49.242Z,90.14
2018-04-01T00:42:51.770Z,90.23
2018-04-01T00:45:54.284Z,90.23
2018-04-01T00:48:57.575Z,90.43
2018-04-01T00:52:00.866Z,90.41
2018-04-01T00:55:03.378Z,90.54
2018-04-01T00:58:05.914Z,90.57
2018-04-01T01:01:08.418Z,90.57
2018-04-01T01:04:11.707Z,90.56
2018-04-01T01:07:14.979Z,90.65
2018-04-01T01:10:17.502Z,90.75
2018-04-01T01:13:20.031Z,91.03
2018-04-01T01:16:22.540Z,90.91
2018-04-01T01:19:25.835Z,90.89
2018-04-01T01:22:29.102Z,90.91
2018-04-01T01:25:31.622Z,91.02
2018-04-01T01:28:34.121Z,91.03
2018-04-01T01:31:36.644Z,90.99
2018-04-01T01:34:39.152Z,90.80
2018-04-01T01:37:41.679Z,90.79
2018-04-01T01:40:44.195Z,90.76
2018-04-01T01:43:47.470Z,90.78
2018-04-01T01:46:49.994Z,90.43
2018-04-01T01:49:52.507Z,90.34
2018-04-01T01:52:55.032Z,90.15
2018-04-01T01:55:57.543Z,90.23
2018-04-01T01:59:00.066Z,90.28
2018-04-01T02:02:02.587Z,90.42
2018-04-01T02:05:05.114Z,90.41
2018-04-01T02:08:07.642Z,90.36
2018-04-01T02:11:10.166Z,90.42
2018-04-01T02:14:12.690Z,90.59
2018-04-01T02:17:15.190Z,90.47
2018-04-01T02:20:17.727Z,90.62
2018-04-01T02:23:20.995Z,90.90
2018-04-01T02:26:23.523Z,91.00
2018-04-01T02:29:26.055Z,90.99
2018-04-01T02:32:28.583Z,91.12
2018-04-01T02:35:31.119Z,91.40
2018-04-01T02:38:33.631Z,91.53
2018-04-01T02:41:36.175Z,91.53
2018-04-01T02:44:39.451Z,91.21
2018-04-01T02:47:41.978Z,91.12
2018-04-01T02:50:44.482Z,91.16
2018-04-01T02:53:47.016Z,90.91
2018-04-01T02:56:50.294Z,90.57
2018-04-01T02:59:52.819Z,90.47
2018-04-01T03:02:55.323Z,90.28
2018-04-01T03:05:57.868Z,89.84
2018-04-01T03:09:00.378Z,89.49
2018-04-01T03:12:02.909Z,89.27
2018-04-01T03:15:06.197Z,89.58
2018-04-01T03:18:09.490Z,89.60
2018-04-01T03:21:12.007Z,89.55
2018-04-01T03:24:14.531Z,89.72
2018-04-01T03:27:17.039Z,90.03
2018-04-01T03:30:19.554Z,90.33
2018-04-01T03:33:22.062Z,90.30
2018-04-01T03:36:24.586Z,90.22
2018-04-01T03:39:27.111Z,90.22
2018-04-01T03:42:29.628Z,90.33
2018-04-01T03:45:32.159Z,90.38
2018-04-01T03:48:34.667Z,90.56
2018-04-01T03:51:37.972Z,90.74
2018-04-01T03:54:41.238Z,90.57
2018-04-01T03:57:43.759Z,90.51
2018-04-01T04:00:46.267Z,90.32
2018-04-01T04:03:48.786Z,90.39
2018-04-01T04:06:52.054Z,90.63
2018-04-01T04:09:54.575Z,90.45
2018-04-01T04:12:57.846Z,90.27
2018-04-01T04:16:00.370Z,90.07
2018-04-01T04:19:02.894Z,90.26
2018-04-01T04:22:05.402Z,90.22
2018-04-01T04:25:08.694Z,90.43
2018-04-01T04:28:11.967Z,90.40
2018-04-01T04:31:14.497Z,90.48
2018-04-01T04:34:17.007Z,90.56
2018-04-01T04:37:19.543Z,90.59
2018-04-01T04:40:22.050Z,90.78
2018-04-01T04:43:24.578Z,90.46
2018-04-01T04:46:27.870Z,90.45
2018-04-01T04:49:31.138Z,90.36
2018-04-01T04:52:33.662Z,90.45
2018-04-01T04:55:36.168Z,90.46
2018-04-01T04:58:38.689Z,90.49
2018-04-01T05:01:41.192Z,90.35
2018-04-01T05:04:43.715Z,90.18
2018-04-01T05:07:46.215Z,90.38
2018-04-01T05:10:48.738Z,90.44
2018-04-01T05:13:51.262Z,90.50
2018-04-01T05:16:53.787Z,90.58
2018-04-01T05:19:56.306Z,90.38
2018-04-01T05:22:58.810Z,90.33
2018-04-01T05:26:01.335Z,90.38
2018-04-01T05:29:03.835Z,90.48
2018-04-01T05:32:06.358Z,89.94
2018-04-01T05:35:09.649Z,89.98
2018-04-01T05:38:12.918Z,89.98
2018-04-01T05:41:15.438Z,90.09
2018-04-01T05:44:17.958Z,90.26
2018-04-01T05:47:20.467Z,90.12
2018-04-01T05:50:22.995Z,89.89
2018-04-01T05:53:25.518Z,89.56
2018-04-01T05:56:28.027Z,89.62
2018-04-01T05:59:30.554Z,89.36
2018-04-01T06:02:33.059Z,89.39
2018-04-01T06:05:35.582Z,89.48
2018-04-01T06:08:38.090Z,88.87
2018-04-01T06:11:40.616Z,88.85
2018-04-01T06:14:43.123Z,88.73
2018-04-01T06:17:45.642Z,88.48
2018-04-01T06:20:48.151Z,88.27
2018-04-01T06:23:50.674Z,88.32
2018-04-01T06:26:53.188Z,88.41
2018-04-01T06:29:56.474Z,87.92
2018-04-01T06:32:58.983Z,87.93
2018-04-01T06:36:02.879Z,87.65
2018-04-01T06:39:09.928Z,87.80
2018-04-01T06:42:19.842Z,87.45
2018-04-01T06:45:22.624Z,87.32
2018-04-01T06:48:29.927Z,87.12
2018-04-01T06:51:36.591Z,86.71
2018-04-01T06:54:42.220Z,86.76
2018-04-01T07:00:57.866Z,86.48
2018-04-01T07:11:28.198Z,85.50
2018-04-01T07:14:41.095Z,85.55
2018-04-01T07:21:28.569Z,85.20
2018-04-01T07:38:29.054Z,84.49
2018-04-01T07:52:30.942Z,83.18
2018-04-01T07:59:19.121Z,83.50
2018-04-01T08:06:06.783Z,82.47
2018-04-01T08:09:09.295Z,81.30
2018-04-01T08:12:11.814Z,82.14
2018-04-01T08:15:14.339Z,81.82
2018-04-01T08:18:16.882Z,81.64
2018-04-01T08:21:19.403Z,81.13
2018-04-01T08:24:27.680Z,81.08
2018-04-01T08:30:41.645Z,81.54
2018-04-01T08:33:46.373Z,80.32
2018-04-01T08:36:48.998Z,81.06
2018-04-01T08:40:24.747Z,81.31
2018-04-01T08:43:28.634Z,81.61
2018-04-01T08:46:31.456Z,79.89
2018-04-01T08:49:34.843Z,78.58
2018-04-01T08:52:38.488Z,79.10
2018-04-01T08:55:41.943Z,77.41
2018-04-01T08:58:54.659Z,78.22
2018-04-01T09:01:58.127Z,78.46
2018-04-01T09:05:07.105Z,77.66
2018-04-01T09:08:14.917Z,76.23
2018-04-01T09:11:20.379Z,76.54
2018-04-01T09:14:22.967Z,76.65
2018-04-01T09:17:26.879Z,75.88
2018-04-01T09:20:29.434Z,75.11
2018-04-01T09:23:31.964Z,73.34
2018-04-01T09:26:34.469Z,72.11
2018-04-01T09:29:37.762Z,72.04
2018-04-01T09:32:41.034Z,71.47
2018-04-01T09:35:43.561Z,71.70
2018-04-01T09:38:52.791Z,70.55
2018-04-01T09:41:55.271Z,69.66
2018-04-01T09:45:04.000Z,71.02
2018-04-01T09:48:07.468Z,71.30
2018-04-01T09:51:10.034Z,69.46
2018-04-01T09:54:15.697Z,70.41
2018-04-01T09:57:18.218Z,70.26
2018-04-01T10:00:25.610Z,69.85
2018-04-01T10:03:28.942Z,68.93
2018-04-01T10:06:32.267Z,70.93
2018-04-01T10:09:35.574Z,70.34
2018-04-01T10:12:39.662Z,70.16
2018-04-01T10:15:42.998Z,71.39
2018-04-01T10:18:46.307Z,68.70
2018-04-01T10:21:49.638Z,68.54
2018-04-01T10:24:52.938Z,68.74
2018-04-01T10:27:56.252Z,68.55
2018-04-01T10:30:59.578Z,66.22
2018-04-01T10:34:02.903Z,68.51
2018-04-01T10:37:06.203Z,67.01
2018-04-01T10:40:09.536Z,68.42
2018-04-01T10:43:12.839Z,66.10
2018-04-01T10:46:16.172Z,64.71
2018-04-01T10:49:19.461Z,65.89
2018-04-01T10:52:22.787Z,66.33
2018-04-01T10:55:25.323Z,66.10
2018-04-01T10:58:28.607Z,65.31
2018-04-01T11:01:31.897Z,64.55
2018-04-01T11:04:34.402Z,62.77
2018-04-01T11:07:36.911Z,62.99
2018-04-01T11:10:39.462Z,64.47
2018-04-01T11:13:41.971Z,63.79
2018-04-01T11:16:44.528Z,62.71
2018-04-01T11:19:47.043Z,60.92
2018-04-01T11:22:49.557Z,59.94
2018-04-01T11:25:52.846Z,60.50
2018-04-01T11:28:55.376Z,59.91
2018-04-01T11:31:57.898Z,60.20
2018-04-01T11:35:00.418Z,60.92
2018-04-01T11:38:02.922Z,59.52
2018-04-01T11:41:05.447Z,58.00
2018-04-01T11:44:08.761Z,60.78
2018-04-01T11:47:11.287Z,61.62
2018-04-01T11:50:13.818Z,61.00
2018-04-01T11:53:16.322Z,57.90
2018-04-01T11:56:18.859Z,59.58
2018-04-01T11:59:21.363Z,58.67
2018-04-01T12:02:23.878Z,58.37
2018-04-01T12:05:26.387Z,56.05
2018-04-01T12:08:29.678Z,56.70
2018-04-01T12:11:32.951Z,58.09
2018-04-01T12:14:35.471Z,55.34
2018-04-01T12:17:38.007Z,55.75
2018-04-01T12:20:40.510Z,57.29
2018-04-01T12:23:43.814Z,54.60
2018-04-01T12:26:46.318Z,54.62
2018-04-01T12:29:48.837Z,55.92
2018-04-01T12:32:51.348Z,54.35
2018-04-01T12:35:53.879Z,56.71
2018-04-01T12:38:56.391Z,54.07
2018-04-01T12:41:59.694Z,53.67
2018-04-01T12:45:03.001Z,54.72
2018-04-01T12:48:05.502Z,56.12
2018-04-01T12:51:08.083Z,54.85
2018-04-01T12:54:10.558Z,53.67
2018-04-01T12:57:13.078Z,54.87
2018-04-01T13:00:15.592Z,52.36
2018-04-01T13:03:18.131Z,54.40
2018-04-01T13:06:20.644Z,52.91
2018-04-01T13:09:23.167Z,54.43
2018-04-01T13:12:25.707Z,53.13
2018-04-01T13:15:28.203Z,54.15
2018-04-01T13:18:30.722Z,54.50
2018-04-01T13:21:33.241Z,50.87
2018-04-01T13:24:35.768Z,51.50
2018-04-01T13:27:38.282Z,54.84
2018-04-01T13:30:41.574Z,60.21
2018-04-01T13:33:44.884Z,62.58
2018-04-01T13:36:47.402Z,62.44
2018-04-01T13:39:49.931Z,60.97
2018-04-01T13:42:52.445Z,59.38
2018-04-01T13:45:54.964Z,60.40
2018-04-01T13:48:58.242Z,60.34
2018-04-01T13:52:00.772Z,59.77
2018-04-01T13:55:03.283Z,59.24
2018-04-01T13:58:05.830Z,59.32
2018-04-01T14:01:08.341Z,60.18
2018-04-01T14:04:10.876Z,59.80
2018-04-01T14:07:13.404Z,59.94
2018-04-01T14:10:15.913Z,59.80
2018-04-01T14:13:19.215Z,59.57
2018-04-01T14:16:22.502Z,59.80
2018-04-01T14:19:25.822Z,59.77
2018-04-01T14:22:28.348Z,60.37
2018-04-01T14:25:30.867Z,60.28
2018-04-01T14:28:34.150Z,61.01
2018-04-01T14:31:36.694Z,60.21
2018-04-01T14:34:39.202Z,58.41
2018-04-01T14:37:41.727Z,58.49
2018-04-01T14:40:44.236Z,59.54
2018-04-01T14:43:46.766Z,58.65
2018-04-01T14:46:49.277Z,59.91
2018-04-01T14:49:51.815Z,58.46
2018-04-01T14:52:54.326Z,58.47
2018-04-01T14:55:56.850Z,58.94
2018-04-01T14:58:59.367Z,57.98
2018-04-01T15:02:01.898Z,58.37
2018-04-01T15:05:04.410Z,59.68
2018-04-01T15:08:06.930Z,59.67
2018-04-01T15:11:09.470Z,58.99
2018-04-01T15:14:11.989Z,60.34
2018-04-01T15:17:14.512Z,59.65
2018-04-01T15:20:17.782Z,60.50
2018-04-01T15:23:20.326Z,61.98
2018-04-01T15:26:22.830Z,59.83
2018-04-01T15:29:25.361Z,60.05
2018-04-01T15:32:27.857Z,60.94
2018-04-01T15:35:30.375Z,59.20
2018-04-01T15:38:32.881Z,58.39
2018-04-01T15:41:35.399Z,58.76
2018-04-01T15:44:37.918Z,58.39
2018-04-01T15:47:41.208Z,57.94
2018-04-01T15:50:44.484Z,59.91
2018-04-01T15:53:47.859Z,58.94
2018-04-01T15:56:50.374Z,59.67
2018-04-01T15:59:52.893Z,58.59
2018-04-01T16:02:55.422Z,59.56
2018-04-01T16:05:57.938Z,59.96
2018-04-01T16:09:00.476Z,58.86
2018-04-01T16:12:02.982Z,57.68
2018-04-01T16:15:06.274Z,58.01
2018-04-01T16:18:09.574Z,56.85
2018-04-01T16:21:12.074Z,57.11
2018-04-01T16:24:14.607Z,56.90
2018-04-01T16:27:17.121Z,55.73
2018-04-01T16:30:19.642Z,57.08
2018-04-01T16:33:22.392Z,57.47
2018-04-01T16:36:24.926Z,58.46
2018-04-01T16:39:27.515Z,58.78
2018-04-01T16:42:30.806Z,59.67
2018-04-01T16:45:33.310Z,59.52
2018-04-01T16:48:35.862Z,59.74
2018-04-01T16:51:38.365Z,59.68
2018-04-01T16:54:40.905Z,60.51
2018-04-01T16:57:43.411Z,60.14
2018-04-01T17:00:46.697Z,61.11
2018-04-01T17:03:50.000Z,60.93
2018-04-01T17:06:53.275Z,61.62
2018-04-01T17:09:55.798Z,61.91
2018-04-01T17:12:58.307Z,61.98
2018-04-01T17:16:01.015Z,62.97
2018-04-01T17:19:03.840Z,63.06
2018-04-01T17:22:06.411Z,63.35
2018-04-01T17:25:08.934Z,64.06
2018-04-01T17:28:11.463Z,64.19
2018-04-01T17:31:13.976Z,65.18
2018-04-01T17:34:16.494Z,64.96
2018-04-01T17:37:19.782Z,65.69
2018-04-01T17:40:22.306Z,65.74
2018-04-01T17:43:24.811Z,66.26
2018-04-01T17:46:27.337Z,66.37
2018-04-01T17:49:30.611Z,67.05
2018-04-01T17:52:33.137Z,67.49
2018-04-01T17:55:35.678Z,67.79
2018-04-01T17:58:38.178Z,68.26
2018-04-01T18:01:40.701Z,68.29
2018-04-01T18:04:43.224Z,68.56
2018-04-01T18:07:45.767Z,68.79
2018-04-01T18:10:48.279Z,68.77
2018-04-01T18:13:51.582Z,69.14
2018-04-01T18:16:54.091Z,69.54
2018-04-01T18:19:56.738Z,69.80
2018-04-01T18:22:59.277Z,70.39
2018-04-01T18:26:01.787Z,70.44
2018-04-01T18:29:05.120Z,70.91
2018-04-01T18:32:07.606Z,71.21
2018-04-01T18:35:10.148Z,71.49
2018-04-01T18:38:13.426Z,71.48
2018-04-01T18:41:16.713Z,71.53
2018-04-01T18:44:19.227Z,71.94
2018-04-01T18:47:21.750Z,72.34
2018-04-01T18:50:24.267Z,72.54
2018-04-01T18:53:27.578Z,72.75
2018-04-01T18:56:30.091Z,72.77
2018-04-01T18:59:32.614Z,73.21
2018-04-01T19:02:35.903Z,73.38
2018-04-01T19:05:39.195Z,73.33
2018-04-01T19:08:42.507Z,73.47
2018-04-01T19:11:45.784Z,73.67
2018-04-01T19:14:48.306Z,73.92
2018-04-01T19:17:51.630Z,74.18
2018-04-01T19:20:54.943Z,74.20
2018-04-01T19:23:58.398Z,74.12
2018-04-01T19:27:01.722Z,73.87
2018-04-01T19:30:05.034Z,74.37
2018-04-01T19:33:08.351Z,74.55
2018-04-01T19:36:12.450Z,74.54
2018-04-01T19:39:15.754Z,74.56
2018-04-01T19:42:19.066Z,74.13
2018-04-01T19:45:23.131Z,74.14
2018-04-01T19:48:26.452Z,74.28
2018-04-01T19:51:29.759Z,74.82
2018-04-01T19:54:33.075Z,74.58
2018-04-01T19:57:37.164Z,74.60
2018-04-01T20:00:40.463Z,74.42
2018-04-01T20:03:43.781Z,74.51
2018-04-01T20:06:47.850Z,74.94
2018-04-01T20:09:51.202Z,74.86
2018-04-01T20:12:55.249Z,74.97
2018-04-01T20:15:58.558Z,74.83
2018-04-01T20:19:01.871Z,75.05
2018-04-01T20:22:05.166Z,75.24
2018-04-01T20:25:08.483Z,75.00
2018-04-01T20:28:12.555Z,75.18
2018-04-01T20:31:15.862Z,74.85
2018-04-01T20:34:19.179Z,74.65
2018-04-01T20:37:22.499Z,74.95
2018-04-01T20:40:26.558Z,75.10
2018-04-01T20:43:29.876Z,75.18
2018-04-01T20:46:33.197Z,75.01
2018-04-01T20:49:37.274Z,74.94
2018-04-01T20:52:40.583Z,75.24
2018-04-01T20:55:43.884Z,75.16
2018-04-01T20:58:47.206Z,74.87
2018-04-01T21:01:51.286Z,74.50
2018-04-01T21:04:54.602Z,74.34
2018-04-01T21:07:57.895Z,74.06
2018-04-01T21:11:01.203Z,74.49
2018-04-01T21:14:05.278Z,74.67
2018-04-01T21:17:08.585Z,74.26
2018-04-01T21:20:11.902Z,73.61
2018-04-01T21:23:15.971Z,73.73
2018-04-01T21:26:19.279Z,74.00
2018-04-01T21:29:22.599Z,74.12
2018-04-01T21:32:25.915Z,74.12
2018-04-01T21:35:29.993Z,74.33
2018-04-01T21:38:33.287Z,74.22
2018-04-01T21:41:36.598Z,74.27
2018-04-01T21:44:39.898Z,73.99
2018-04-01T21:47:43.219Z,74.20
2018-04-01T21:50:47.283Z,74.30
2018-04-01T21:53:50.604Z,74.04
2018-04-01T21:56:53.899Z,74.25
2018-04-01T21:59:57.215Z,73.56
2018-04-01T22:03:01.294Z,73.38
2018-04-01T22:06:04.586Z,73.23
2018-04-01T22:09:07.910Z,72.98
2018-04-01T22:12:11.227Z,73.00
2018-04-01T22:15:15.306Z,72.77
2018-04-01T22:18:18.623Z,72.34
2018-04-01T22:21:21.955Z,72.45
2018-04-01T22:24:25.248Z,72.70
2018-04-01T22:27:28.563Z,72.69
2018-04-01T22:30:31.875Z,72.55
2018-04-01T22:33:35.181Z,72.83
2018-04-01T22:36:38.501Z,73.32
2018-04-01T22:39:42.562Z,73.79
2018-04-01T22:42:45.879Z,74.17
2018-04-01T22:45:49.182Z,74.35
2018-04-01T22:48:53.269Z,74.77
2018-04-01T22:51:56.563Z,75.01
2018-04-01T22:54:59.884Z,75.43
2018-04-01T22:58:03.966Z,75.90
2018-04-01T23:01:07.263Z,76.31
2018-04-01T23:04:10.577Z,76.70
2018-04-01T23:07:13.875Z,77.32
2018-04-01T23:10:17.199Z,77.79
2018-04-01T23:13:20.663Z,78.26
2018-04-01T23:16:23.981Z,78.67
2018-04-01T23:19:27.300Z,79.16
2018-04-01T23:22:43.472Z,79.93
2018-04-01T23:25:48.654Z,80.07
2018-04-01T23:28:52.791Z,80.29
2018-04-01T23:31:56.164Z,81.04
2018-04-01T23:35:02.358Z,81.05
2018-04-01T23:38:05.720Z,81.31
2018-04-01T23:41:10.789Z,81.55
2018-04-01T23:44:15.924Z,81.44
2018-04-01T23:47:19.330Z,81.44
2018-04-01T23:50:23.742Z,81.53
2018-04-01T23:53:29.711Z,81.68
2018-04-01T23:56:33.970Z,81.61
2018-04-01T23:59:37.629Z,81.57
